createdAt,value
2023-04-20T00:03:37.241Z,-1.2
2023-04-20T00:09:37.175Z,-1.2
2023-04-20T00:15:40.244Z,-1.2
2023-04-20T00:21:38.643Z,-1
2023-04-20T00:27:37.552Z,-0.7
2023-04-20T00:33:37.585Z,-0.8
2023-04-20T00:39:38.050Z,-1.2
2023-04-20T00:45:37.490Z,-1
2023-04-20T00:51:37.805Z,-1
2023-04-20T00:57:37.402Z,-0.7
2023-04-20T01:03:37.965Z,-1
2023-04-20T01:09:37.485Z,-0.2
2023-04-20T01:15:37.740Z,-0.4
2023-04-20T01:21:38.173Z,0
2023-04-20T01:27:37.694Z,-0.5
2023-04-20T01:33:38.415Z,-0.4
2023-04-20T01:39:37.939Z,-0.1
2023-04-20T01:45:37.779Z,0
2023-04-20T01:51:39.023Z,0.1
2023-04-20T01:57:38.023Z,0.1
2023-04-20T02:03:38.435Z,0
2023-04-20T02:09:37.547Z,0.1
2023-04-20T02:15:38.254Z,0.4
2023-04-20T02:21:38.093Z,0.4
2023-04-20T02:27:37.733Z,0.5
2023-04-20T02:33:37.600Z,0.5
2023-04-20T02:39:37.659Z,0.7
2023-04-20T02:45:38.879Z,0.4
2023-04-20T02:51:38.578Z,0.7
2023-04-20T02:57:37.226Z,0.5
2023-04-20T03:03:37.661Z,0.7
2023-04-20T03:09:37.389Z,0.4
2023-04-20T03:15:37.451Z,0.7
2023-04-20T03:21:37.729Z,0.9
2023-04-20T03:27:37.722Z,0.5
2023-04-20T03:33:37.602Z,0.4
2023-04-20T03:39:37.151Z,0.6
2023-04-20T03:45:37.535Z,1
2023-04-20T03:51:38.552Z,0.7
2023-04-20T03:57:37.638Z,0.6
2023-04-20T04:03:38.096Z,1.1
2023-04-20T04:09:37.999Z,1.1
2023-04-20T04:15:37.508Z,1.4
2023-04-20T04:21:37.125Z,1
2023-04-20T04:27:37.341Z,1.5
2023-04-20T04:33:37.550Z,1
2023-04-20T04:39:37.934Z,1.3
2023-04-20T04:45:37.263Z,1.5
2023-04-20T04:51:37.530Z,1.6
2023-04-20T04:57:37.184Z,1.7
2023-04-20T05:03:38.803Z,2.1
2023-04-20T05:09:38.283Z,2.4
2023-04-20T05:15:38.154Z,2.4
2023-04-20T05:21:37.368Z,2.7
2023-04-20T05:27:37.374Z,3.1
2023-04-20T05:33:38.330Z,3
2023-04-20T05:39:37.830Z,3
2023-04-20T05:45:37.405Z,2.9
2023-04-20T05:51:38.640Z,3.3
2023-04-20T05:57:38.015Z,3.1
2023-04-20T06:03:38.311Z,3
2023-04-20T06:09:37.417Z,2.9
2023-04-20T06:15:37.184Z,2.8
2023-04-20T06:21:39.121Z,3
2023-04-20T06:27:38.021Z,3.2
2023-04-20T06:33:38.751Z,3.3
2023-04-20T06:39:37.101Z,3.4
2023-04-20T06:45:37.426Z,3.1
2023-04-20T06:51:38.487Z,3.6
2023-04-20T06:57:38.166Z,3.5
2023-04-20T07:03:38.462Z,3.4
2023-04-20T07:09:38.307Z,3.8
2023-04-20T07:15:37.423Z,3.9
2023-04-20T07:21:38.181Z,4
2023-04-20T07:27:37.889Z,4
2023-04-20T07:33:37.079Z,4.4
2023-04-20T07:39:37.365Z,4.5
2023-04-20T07:45:38.939Z,4.6
2023-04-20T07:51:37.693Z,4.7
2023-04-20T07:57:38.560Z,4.3
2023-04-20T08:03:37.992Z,4.2
2023-04-20T08:09:37.106Z,4.1
2023-04-20T08:15:37.267Z,4.4
2023-04-20T08:21:38.540Z,4.5
2023-04-20T08:27:38.909Z,4.2
2023-04-20T08:33:37.144Z,4.4
2023-04-20T08:39:37.811Z,4.8
2023-04-20T08:45:38.275Z,5.1
2023-04-20T08:51:37.964Z,5.1
2023-04-20T08:57:38.328Z,5
2023-04-20T09:03:37.612Z,4.9
2023-04-20T09:09:37.183Z,4.5
2023-04-20T09:15:37.081Z,4.7
2023-04-20T09:21:38.163Z,4.6
2023-04-20T09:27:38.268Z,5.3
2023-04-20T09:33:37.951Z,5.2
2023-04-20T09:39:37.107Z,5.4
2023-04-20T09:45:37.155Z,5
2023-04-20T09:51:37.385Z,4.8
2023-04-20T09:57:38.142Z,5
2023-04-20T10:03:37.462Z,4.8
2023-04-20T10:09:38.385Z,5
2023-04-20T10:15:37.907Z,5.5
2023-04-20T10:21:37.636Z,5.5
2023-04-20T10:27:38.179Z,5.3
2023-04-20T10:33:37.342Z,5.3
2023-04-20T10:39:37.347Z,5
2023-04-20T10:45:37.196Z,4.5
2023-04-20T10:51:37.643Z,4
2023-04-20T10:57:38.116Z,4.3
2023-04-20T11:03:37.327Z,4.7
2023-04-20T11:09:37.182Z,3.7
2023-04-20T11:15:37.899Z,3.9
2023-04-20T11:21:37.382Z,3.7
2023-04-20T11:27:37.818Z,4.2
2023-04-20T11:33:37.333Z,4.8
2023-04-20T11:39:37.284Z,4
2023-04-20T11:45:37.656Z,4.3
2023-04-20T11:51:37.467Z,4.3
2023-04-20T11:57:38.215Z,4
2023-04-20T12:03:37.482Z,3.7
2023-04-20T12:09:38.474Z,3.7
2023-04-20T12:15:37.416Z,4
2023-04-20T12:21:37.206Z,4.2
2023-04-20T12:27:37.624Z,4.5
2023-04-20T12:33:37.209Z,4.2
2023-04-20T12:39:37.669Z,4.5
2023-04-20T12:45:37.797Z,4.5
2023-04-20T12:51:37.450Z,4.8
2023-04-20T12:57:37.453Z,4
2023-04-20T13:03:37.326Z,4.4
2023-04-20T13:09:37.404Z,4.4
2023-04-20T13:15:39.410Z,5
2023-04-20T13:21:37.796Z,4.3
2023-04-20T13:27:37.971Z,4.7
2023-04-20T13:33:37.544Z,4.7
2023-04-20T13:39:38.151Z,4.7
2023-04-20T13:45:37.510Z,4.3
2023-04-20T13:51:37.645Z,3.7
2023-04-20T13:57:37.480Z,3.1
2023-04-20T14:03:37.534Z,3.5
2023-04-20T14:09:37.507Z,3
2023-04-20T14:15:37.481Z,3.3
2023-04-20T14:21:37.155Z,3.4
2023-04-20T14:27:38.240Z,2.8
2023-04-20T14:33:37.217Z,2.8
2023-04-20T14:39:37.245Z,2.8
2023-04-20T14:45:37.151Z,2.7
2023-04-20T14:51:37.736Z,2.3
2023-04-20T14:57:38.994Z,2
2023-04-20T15:03:37.930Z,2.3
2023-04-20T15:09:37.705Z,3
2023-04-20T15:15:47.480Z,3.3
2023-04-20T15:21:37.962Z,2.4
2023-04-20T15:27:38.191Z,3.1
2023-04-20T15:33:37.626Z,3.6
2023-04-20T15:39:37.708Z,3
2023-04-20T15:45:37.561Z,3.3
2023-04-20T15:51:37.516Z,4.9
2023-04-20T15:57:37.373Z,4.5
2023-04-20T16:03:37.616Z,4
2023-04-20T16:09:37.499Z,2.6
2023-04-20T16:15:37.293Z,2.4
2023-04-20T16:21:37.306Z,3.6
2023-04-20T16:27:37.548Z,3.9
2023-04-20T16:33:37.275Z,3.6
2023-04-20T16:39:37.171Z,3.4
2023-04-20T16:45:38.076Z,3.1
2023-04-20T16:51:37.284Z,3.3
2023-04-20T16:57:37.994Z,3.4
2023-04-20T17:03:37.709Z,3.5
2023-04-20T17:09:37.770Z,3.7
2023-04-20T17:15:37.739Z,3.7
2023-04-20T17:21:37.264Z,3.7
2023-04-20T17:27:38.017Z,4
2023-04-20T17:33:38.128Z,3.9
2023-04-20T17:39:37.806Z,4
2023-04-20T17:45:37.904Z,4.5
2023-04-20T17:51:37.314Z,4.4
2023-04-20T17:57:38.651Z,4.2
2023-04-20T18:03:37.900Z,4.2
2023-04-20T18:09:37.311Z,4.1
2023-04-20T18:15:37.484Z,4.2
2023-04-20T18:21:39.012Z,4.4
2023-04-20T18:27:39.013Z,4.5
2023-04-20T18:33:37.537Z,4.6
2023-04-20T18:39:37.193Z,4.9
2023-04-20T18:45:37.471Z,5.2
2023-04-20T18:51:37.138Z,5.1
2023-04-20T18:57:39.037Z,5.1
2023-04-20T19:03:37.425Z,5.2
2023-04-20T19:09:37.224Z,5.2
2023-04-20T19:15:37.253Z,5.2
2023-04-20T19:21:37.235Z,5.3
2023-04-20T19:27:37.231Z,5.2
2023-04-20T19:33:37.548Z,5.2
2023-04-20T19:39:37.502Z,5.4
2023-04-20T19:45:38.019Z,5.5
2023-04-20T19:51:37.261Z,5.5
2023-04-20T19:57:37.780Z,5.5
2023-04-20T20:03:37.514Z,5.3
2023-04-20T20:09:37.223Z,5.4
2023-04-20T20:15:37.608Z,5.5
2023-04-20T20:21:37.046Z,5.7
2023-04-20T20:27:37.448Z,5.5
2023-04-20T20:33:37.407Z,5.7
2023-04-20T20:39:37.226Z,5.9
2023-04-20T20:45:37.297Z,5.8
2023-04-20T20:51:38.163Z,5.9
2023-04-20T20:57:37.424Z,5.8
2023-04-20T21:03:37.591Z,5.9
2023-04-20T21:09:37.435Z,5.7
2023-04-20T21:15:37.356Z,5.8
2023-04-20T21:21:37.615Z,5.8
2023-04-20T21:27:38.497Z,5.9
2023-04-20T21:33:37.316Z,5.9
2023-04-20T21:39:37.232Z,5.9
2023-04-20T21:45:37.656Z,6.1
2023-04-20T21:51:37.373Z,6.1
2023-04-20T21:57:37.909Z,6.1
2023-04-20T22:03:38.140Z,6.3
2023-04-20T22:09:38.057Z,6.4
2023-04-20T22:15:37.446Z,6.3
2023-04-20T22:21:37.244Z,6.3
2023-04-20T22:27:37.484Z,6.2
2023-04-20T22:33:37.258Z,6.1
2023-04-20T22:39:38.179Z,6.3
2023-04-20T22:45:37.157Z,6.4
2023-04-20T22:51:38.338Z,6.5
2023-04-20T22:57:37.118Z,6.3
2023-04-20T23:03:39.107Z,6.4
2023-04-20T23:09:37.676Z,6.5
2023-04-20T23:15:37.531Z,6.5
2023-04-20T23:21:38.077Z,6.5
2023-04-20T23:27:37.451Z,6.5
2023-04-20T23:33:37.860Z,6.5
2023-04-20T23:39:37.430Z,6.5
2023-04-20T23:45:37.246Z,6.5
2023-04-20T23:51:37.247Z,6.5
2023-04-20T23:57:37.903Z,6.3
